Time;durP1;ratioP1;P1;durP2;ratioP2;P2;SDS_P1;SDS_P2;PMS_P1;PMS_P2;Temp;Humidity;BMP_temperature;BMP_pressure;BME280_temperature;BME280_humidity;BME280_pressure;Samples;Min_cycle;Max_cycle;Signal;HPM_P1;HPM_P2
2022/11/17 00:00:07;;;;;;;29.38;19.95;;;8.40;93.70;;;;;;5039772;28;20193;-79
2022/11/17 00:02:32;;;;;;;31.10;20.30;;;8.40;93.70;;;;;;5056417;28;20048;-79
2022/11/17 00:04:58;;;;;;;31.98;20.30;;;8.40;93.70;;;;;;5039517;28;20047;-79
2022/11/17 00:07:24;;;;;;;29.17;19.92;;;8.40;93.70;;;;;;5056082;28;20105;-79
2022/11/17 00:09:49;;;;;;;29.80;20.50;;;8.40;93.70;;;;;;5039690;28;20045;-80
2022/11/17 00:14:59;;;;;;;28.05;18.40;;;8.50;93.50;;;;;;5059117;28;20044;-80
2022/11/17 00:17:25;;;;;;;29.80;19.83;;;8.50;93.50;;;;;;5039563;28;20399;-80
2022/11/17 00:22:34;;;;;;;26.52;17.65;;;8.50;93.50;;;;;;5058776;28;20052;-80
2022/11/17 00:25:00;;;;;;;27.08;19.45;;;8.50;93.40;;;;;;5039697;28;20040;-80
2022/11/17 00:27:26;;;;;;;28.77;18.95;;;8.50;93.40;;;;;;5039471;28;20052;-80
2022/11/17 00:29:52;;;;;;;27.50;18.95;;;8.50;93.40;;;;;;5056185;28;20040;-80
2022/11/17 00:35:04;;;;;;;31.40;20.60;;;8.50;93.50;;;;;;5058523;28;20052;-80
2022/11/17 00:37:34;;;;;;;28.77;18.25;;;8.40;93.50;;;;;;5056048;28;20036;-79
2022/11/17 00:40:00;;;;;;;30.13;18.80;;;8.50;93.50;;;;;;5055802;28;20098;-80
2022/11/17 00:42:26;;;;;;;25.63;18.40;;;8.50;93.40;;;;;;5055810;28;20048;-80
2022/11/17 00:44:51;;;;;;;28.13;18.45;;;8.50;93.30;;;;;;5039120;28;20045;-80
2022/11/17 00:47:17;;;;;;;24.95;17.42;;;8.50;93.40;;;;;;5039158;28;20044;-80
2022/11/17 00:49:43;;;;;;;22.27;16.40;;;8.50;93.40;;;;;;5038997;28;20040;-79
2022/11/17 00:52:09;;;;;;;24.08;17.95;;;8.50;93.40;;;;;;5055727;28;20063;-80
2022/11/17 00:54:34;;;;;;;27.58;18.27;;;8.50;93.30;;;;;;5055835;28;20437;-80
2022/11/17 00:57:00;;;;;;;27.35;18.00;;;8.50;93.30;;;;;;5039082;28;20491;-80
2022/11/17 00:59:26;;;;;;;28.08;17.75;;;8.50;93.30;;;;;;5038976;28;20029;-79
2022/11/17 01:01:52;;;;;;;25.27;17.65;;;8.50;93.40;;;;;;5055685;28;20094;-80
2022/11/17 01:04:17;;;;;;;24.52;17.08;;;8.50;93.40;;;;;;5055517;28;20048;-80
2022/11/17 01:06:48;;;;;;;21.65;16.33;;;8.50;93.40;;;;;;5055302;28;20044;-79
2022/11/17 01:09:19;;;;;;;27.17;19.08;;;8.60;93.20;;;;;;5072201;28;20047;-79
2022/11/17 01:11:46;;;;;;;22.80;16.20;;;8.50;93.20;;;;;;5055428;28;20048;-79
2022/11/17 01:14:17;;;;;;;23.77;16.63;;;8.50;93.30;;;;;;5055642;28;20037;-79
2022/11/17 01:16:43;;;;;;;27.08;16.65;;;8.60;93.30;;;;;;5055477;28;20040;-79
2022/11/17 01:19:10;;;;;;;23.48;16.48;;;8.60;93.30;;;;;;5072005;28;20043;-79
2022/11/17 01:21:36;;;;;;;24.13;16.52;;;8.60;93.20;;;;;;5057168;28;20102;-80
2022/11/17 01:24:02;;;;;;;18.25;15.35;;;8.60;93.10;;;;;;5075951;28;20047;-79
2022/11/17 01:26:34;;;;;;;21.63;15.45;;;8.60;93.20;;;;;;5075726;28;20048;-79
2022/11/17 01:29:01;;;;;;;20.02;14.82;;;8.60;93.10;;;;;;5059169;28;20040;-79
2022/11/17 01:31:33;;;;;;;20.83;15.00;;;8.60;93.20;;;;;;5075608;28;20526;-79
2022/11/17 01:33:59;;;;;;;19.55;14.85;;;8.60;93.10;;;;;;5075912;28;20045;-79
2022/11/17 01:36:28;;;;;;;18.42;12.93;;;8.60;93.00;;;;;;5075972;28;20054;-80
2022/11/17 01:38:54;;;;;;;23.15;15.00;;;8.60;93.10;;;;;;5058973;28;20039;-79
2022/11/17 01:41:23;;;;;;;18.75;15.88;;;8.60;93.00;;;;;;5059030;28;20037;-79
2022/11/17 01:43:57;;;;;;;22.70;14.95;;;8.60;92.90;;;;;;5059054;28;20048;-79
2022/11/17 01:46:25;;;;;;;20.08;14.23;;;8.60;92.90;;;;;;5075785;28;20044;-80
2022/11/17 01:48:55;;;;;;;19.63;15.05;;;8.60;92.90;;;;;;5059286;28;20446;-79
2022/11/17 01:51:21;;;;;;;20.13;14.32;;;8.60;92.80;;;;;;5075538;28;20044;-80
2022/11/17 01:53:50;;;;;;;19.50;14.85;;;8.60;92.90;;;;;;5058866;28;20093;-79
2022/11/17 01:56:22;;;;;;;20.60;15.90;;;8.60;92.80;;;;;;5059595;28;20059;-79
2022/11/17 01:58:56;;;;;;;19.20;14.98;;;8.60;92.70;;;;;;5058855;28;20051;-79
2022/11/17 02:01:21;;;;;;;21.17;15.55;;;8.60;92.80;;;;;;5059131;28;20451;-79
2022/11/17 02:03:48;;;;;;;18.85;14.65;;;8.60;92.70;;;;;;5042086;28;20087;-79
2022/11/17 02:06:40;;;;;;;19.40;14.75;;;8.60;92.80;;;;;;5059010;28;20036;-79
2022/11/17 02:09:07;;;;;;;19.58;15.27;;;8.60;92.90;;;;;;5071506;28;20055;-80
2022/11/17 02:11:34;;;;;;;18.95;14.45;;;8.60;92.90;;;;;;5058767;28;20492;-80
2022/11/17 02:14:03;;;;;;;20.52;14.80;;;8.60;93.10;;;;;;5075248;28;20582;-80
2022/11/17 02:16:29;;;;;;;20.67;14.98;;;8.60;93.10;;;;;;5058764;28;20127;-80
2022/11/17 02:18:55;;;;;;;20.38;14.95;;;8.60;93.00;;;;;;5058527;28;20127;-79
2022/11/17 02:21:39;;;;;;;17.85;15.05;;;8.60;93.00;;;;;;5058349;28;20181;-80
2022/11/17 02:24:23;;;;;;;17.17;13.45;;;8.50;93.20;;;;;;5058362;28;20047;-78
2022/11/17 02:27:17;;;;;;;17.37;13.10;;;8.60;93.20;;;;;;5058350;28;20094;-79
2022/11/17 02:30:09;;;;;;;17.45;13.93;;;8.60;93.30;;;;;;5058288;28;20040;-80
2022/11/17 02:32:37;;;;;;;18.77;13.70;;;8.50;93.60;;;;;;5073529;28;20090;-80
2022/11/17 02:35:48;;;;;;;18.90;14.88;;;8.50;93.70;;;;;;5058399;28;20388;-80
2022/11/17 02:38:38;;;;;;;18.75;13.93;;;8.50;93.60;;;;;;5021756;28;20055;-80
2022/11/17 02:41:09;;;;;;;16.27;12.57;;;8.50;93.60;;;;;;5058155;28;20037;-80
2022/11/17 02:44:04;;;;;;;16.42;12.25;;;8.50;93.60;;;;;;5058007;28;20036;-79
2022/11/17 02:46:51;;;;;;;19.77;14.43;;;8.60;93.60;;;;;;5057979;28;20510;-80
2022/11/17 02:49:25;;;;;;;17.25;13.93;;;8.50;93.70;;;;;;5074674;28;20109;-80
2022/11/17 02:51:55;;;;;;;16.13;13.27;;;8.50;93.90;;;;;;5057976;28;20041;-80
2022/11/17 02:54:22;;;;;;;20.27;14.23;;;8.50;93.90;;;;;;5074393;28;20043;-80
2022/11/17 02:56:48;;;;;;;15.73;12.63;;;8.50;93.90;;;;;;5057361;28;20048;-80
2022/11/17 02:59:18;;;;;;;16.65;14.10;;;8.50;94.00;;;;;;5041259;28;20112;-80
2022/11/17 03:01:52;;;;;;;21.05;15.32;;;8.50;94.00;;;;;;5057836;28;20044;-80
2022/11/17 03:04:55;;;;;;;17.77;13.63;;;8.50;94.20;;;;;;5057779;28;20050;-80
2022/11/17 03:07:49;;;;;;;20.98;13.35;;;8.50;94.30;;;;;;5074285;28;20389;-80
2022/11/17 03:10:35;;;;;;;18.08;14.18;;;8.40;94.30;;;;;;5057906;28;20086;-80
2022/11/17 03:13:11;;;;;;;18.38;14.00;;;8.40;94.50;;;;;;5074350;28;20037;-80
2022/11/17 03:16:21;;;;;;;16.85;13.18;;;8.40;94.30;;;;;;5074204;28;20041;-80
2022/11/17 03:19:08;;;;;;;18.88;13.55;;;8.40;94.50;;;;;;5057520;28;20044;-80
2022/11/17 03:21:46;;;;;;;19.10;13.48;;;8.40;94.60;;;;;;5073952;28;20048;-81
2022/11/17 03:24:22;;;;;;;17.27;13.52;;;8.40;94.50;;;;;;5074161;28;20036;-81
2022/11/17 03:26:55;;;;;;;17.38;13.00;;;8.40;94.50;;;;;;5073900;28;20511;-82
2022/11/17 03:29:26;;;;;;;14.37;12.57;;;8.40;94.40;;;;;;5057127;28;20048;-81
2022/11/17 03:32:01;;;;;;;19.60;13.82;;;8.40;94.50;;;;;;5056994;28;20305;-81
2022/11/17 03:34:30;;;;;;;16.85;13.10;;;8.40;94.60;;;;;;5057194;28;20043;-80
2022/11/17 03:37:02;;;;;;;16.38;12.88;;;8.30;94.60;;;;;;5057406;28;20043;-82
2022/11/17 03:39:32;;;;;;;17.15;13.68;;;8.30;94.80;;;;;;5073630;28;20213;-81
2022/11/17 03:42:12;;;;;;;16.88;13.18;;;8.30;94.80;;;;;;5057027;28;20041;-80
2022/11/17 03:44:40;;;;;;;16.17;12.75;;;8.30;94.80;;;;;;5073356;28;20052;-81
2022/11/17 03:47:08;;;;;;;15.57;11.75;;;8.30;94.90;;;;;;5056814;28;20036;-80
2022/11/17 03:49:42;;;;;;;15.77;12.13;;;8.30;94.80;;;;;;5073395;28;20076;-81
2022/11/17 03:52:07;;;;;;;13.05;11.43;;;8.30;94.90;;;;;;5056682;28;20067;-81
2022/11/17 03:54:35;;;;;;;15.95;11.50;;;8.40;94.90;;;;;;5040183;28;20041;-81
2022/11/17 03:57:11;;;;;;;15.68;11.50;;;8.40;94.80;;;;;;5040013;28;20484;-80
2022/11/17 03:59:52;;;;;;;15.23;11.02;;;8.40;94.80;;;;;;5056588;28;20037;-80
2022/11/17 04:02:20;;;;;;;14.13;11.60;;;8.40;94.90;;;;;;5056574;28;20088;-81
2022/11/17 04:05:04;;;;;;;16.50;12.05;;;8.40;94.80;;;;;;5056498;28;20127;-80
2022/11/17 04:07:35;;;;;;;16.25;11.40;;;8.40;94.80;;;;;;5056564;28;20139;-80
2022/11/17 04:10:01;;;;;;;12.23;10.70;;;8.40;94.80;;;;;;5056300;28;20054;-80
2022/11/17 04:17:56;;;;;;;14.00;10.38;;;8.40;94.80;;;;;;5073076;28;20036;-78
2022/11/17 04:20:22;;;;;;;14.68;12.18;;;8.40;94.80;;;;;;5056384;28;20476;-79
2022/11/17 04:23:10;;;;;;;12.43;10.48;;;8.40;94.80;;;;;;5039926;28;20457;-80
2022/11/17 04:28:36;;;;;;;14.75;11.40;;;8.40;95.00;;;;;;5072583;28;20051;-80
2022/11/17 04:31:08;;;;;;;13.50;10.90;;;8.30;95.00;;;;;;5072680;28;20133;-80
2022/11/17 04:33:34;;;;;;;11.30;9.02;;;8.40;95.10;;;;;;5072774;28;20455;-80
2022/11/17 04:36:01;;;;;;;17.40;10.88;;;8.40;95.00;;;;;;5072849;28;20032;-81
2022/11/17 04:38:27;;;;;;;13.55;10.27;;;8.40;95.00;;;;;;5055991;28;20036;-80
2022/11/17 04:43:40;;;;;;;10.82;8.77;;;8.30;95.10;;;;;;5072466;28;20090;-80
2022/11/17 04:46:06;;;;;;;13.82;10.45;;;8.40;95.00;;;;;;5056368;28;20472;-80
2022/11/17 04:48:31;;;;;;;11.02;9.00;;;8.40;94.90;;;;;;5039060;28;20044;-80
2022/11/17 04:50:57;;;;;;;10.02;8.30;;;8.40;94.90;;;;;;5055641;28;20037;-81
2022/11/17 04:53:23;;;;;;;11.32;9.50;;;8.40;94.90;;;;;;5072612;28;20033;-80
2022/11/17 04:55:49;;;;;;;11.15;8.73;;;8.40;94.80;;;;;;5054893;28;20047;-80
2022/11/17 04:58:15;;;;;;;13.18;11.25;;;8.50;94.80;;;;;;5055534;28;20033;-80
2022/11/17 05:00:41;;;;;;;11.15;8.65;;;8.40;94.70;;;;;;5055436;28;20043;-80
2022/11/17 05:03:07;;;;;;;12.85;9.40;;;8.40;94.80;;;;;;5072227;28;20127;-80
2022/11/17 05:05:33;;;;;;;12.35;9.13;;;8.30;94.80;;;;;;5055581;28;20040;-80
2022/11/17 05:07:59;;;;;;;10.35;8.98;;;8.30;94.80;;;;;;5055420;28;20048;-80
2022/11/17 05:13:26;;;;;;;12.18;9.65;;;8.30;94.80;;;;;;5058413;28;20044;-80
2022/11/17 05:18:42;;;;;;;10.32;8.65;;;8.30;94.80;;;;;;5072104;28;20051;-82
2022/11/17 05:21:10;;;;;;;11.20;8.93;;;8.20;95.00;;;;;;5072165;28;20487;-80
2022/11/17 05:23:54;;;;;;;10.82;8.52;;;8.20;94.90;;;;;;5055393;28;20079;-80
2022/11/17 05:26:33;;;;;;;11.05;9.63;;;8.20;94.70;;;;;;5055734;28;20040;-80
2022/11/17 05:29:00;;;;;;;14.02;9.80;;;8.30;94.70;;;;;;5072030;28;20040;-80
2022/11/17 05:31:27;;;;;;;12.05;9.57;;;8.20;94.70;;;;;;5071925;28;20043;-80
2022/11/17 05:33:54;;;;;;;10.35;8.90;;;8.20;94.70;;;;;;5072504;28;20123;-81
2022/11/17 05:36:21;;;;;;;12.32;9.55;;;8.30;94.60;;;;;;5072471;28;20479;-82
2022/11/17 05:38:47;;;;;;;12.27;9.60;;;8.20;94.60;;;;;;5072372;28;20036;-82
2022/11/17 05:41:14;;;;;;;12.68;9.52;;;8.20;94.60;;;;;;5055253;28;20037;-81
2022/11/17 05:43:40;;;;;;;10.40;8.68;;;8.20;94.50;;;;;;5072234;28;20495;-81
2022/11/17 05:46:06;;;;;;;11.18;8.52;;;8.20;94.60;;;;;;5055546;28;20036;-83
2022/11/17 05:48:32;;;;;;;9.32;8.30;;;8.20;94.60;;;;;;5055139;28;20152;-81
2022/11/17 05:50:59;;;;;;;12.32;9.20;;;8.20;94.40;;;;;;5055036;28;20040;-82
2022/11/17 05:53:25;;;;;;;12.15;9.43;;;8.20;94.30;;;;;;5055003;28;20040;-82
2022/11/17 05:56:02;;;;;;;8.80;7.03;;;8.10;94.30;;;;;;5071360;28;20033;-82
2022/11/17 05:58:32;;;;;;;12.98;8.40;;;8.20;94.50;;;;;;5071363;28;20055;-81
2022/11/17 06:00:58;;;;;;;10.90;9.52;;;8.20;94.00;;;;;;5055487;28;20048;-82
2022/11/17 06:03:29;;;;;;;13.38;9.45;;;8.10;94.00;;;;;;5055074;28;20044;-83
2022/11/17 06:05:55;;;;;;;10.30;9.15;;;8.10;94.00;;;;;;5055037;28;20044;-82
2022/11/17 06:08:20;;;;;;;12.52;9.80;;;8.10;94.00;;;;;;5073997;28;20063;-82
2022/11/17 06:10:46;;;;;;;10.75;8.07;;;8.10;94.00;;;;;;5058639;28;20063;-82
2022/11/17 06:13:12;;;;;;;10.90;9.65;;;8.10;94.10;;;;;;5058630;28;20043;-81
2022/11/17 06:15:38;;;;;;;9.38;8.35;;;8.10;94.00;;;;;;5058864;28;20048;-81
2022/11/17 06:18:10;;;;;;;10.45;8.68;;;8.00;94.00;;;;;;5075073;28;20119;-81
2022/11/17 06:20:44;;;;;;;10.70;9.05;;;8.10;93.90;;;;;;5075229;28;20039;-81
2022/11/17 06:23:10;;;;;;;10.32;8.85;;;8.00;93.70;;;;;;5075332;28;20040;-82
2022/11/17 06:25:37;;;;;;;10.13;7.95;;;8.00;93.90;;;;;;5058785;28;20040;-82
2022/11/17 06:28:07;;;;;;;9.63;8.63;;;8.00;93.90;;;;;;5059135;28;20080;-83
2022/11/17 06:30:35;;;;;;;8.82;7.65;;;8.00;93.60;;;;;;5058540;28;20127;-83
2022/11/17 06:33:01;;;;;;;8.25;7.03;;;8.00;93.50;;;;;;5059200;28;20036;-82
2022/11/17 06:35:32;;;;;;;8.20;7.28;;;8.00;93.50;;;;;;5075280;28;20036;-82
2022/11/17 06:37:58;;;;;;;9.18;7.95;;;7.90;93.50;;;;;;5058706;28;20047;-82
2022/11/17 06:40:25;;;;;;;9.43;7.70;;;8.00;93.50;;;;;;5058345;28;20040;-83
2022/11/17 06:43:02;;;;;;;10.02;7.97;;;7.90;93.60;;;;;;5058295;28;20051;-83
2022/11/17 06:45:39;;;;;;;8.38;6.53;;;7.90;93.60;;;;;;5059597;28;20044;-80
2022/11/17 06:48:06;;;;;;;8.82;7.25;;;7.90;93.60;;;;;;5074317;28;20041;-82
2022/11/17 06:50:32;;;;;;;8.10;6.82;;;7.90;93.50;;;;;;5074664;28;20119;-81
2022/11/17 06:53:00;;;;;;;8.68;7.25;;;7.80;93.60;;;;;;5041356;28;20449;-80
2022/11/17 06:55:27;;;;;;;7.78;6.35;;;7.80;93.80;;;;;;5074743;28;20040;-81
2022/11/17 06:58:01;;;;;;;7.78;6.50;;;7.80;93.60;;;;;;5057888;28;20157;-83
2022/11/17 07:00:29;;;;;;;8.13;6.07;;;7.80;93.80;;;;;;5074688;28;20032;-80
2022/11/17 07:03:03;;;;;;;7.63;6.50;;;7.80;93.80;;;;;;5074487;28;20048;-82
2022/11/17 07:05:30;;;;;;;7.80;6.57;;;7.70;93.90;;;;;;5074383;28;20041;-81
2022/11/17 07:08:01;;;;;;;7.95;6.53;;;7.70;93.90;;;;;;5074386;28;20150;-80
2022/11/17 07:10:27;;;;;;;6.57;5.40;;;7.70;94.00;;;;;;5074380;28;20560;-82
2022/11/17 07:12:53;;;;;;;7.38;6.20;;;7.70;93.90;;;;;;5074288;28;20036;-80
2022/11/17 07:15:20;;;;;;;8.07;6.82;;;7.70;93.80;;;;;;5074124;28;20502;-82
2022/11/17 07:17:46;;;;;;;7.13;6.30;;;7.70;93.90;;;;;;5057372;28;20546;-81
2022/11/17 07:20:12;;;;;;;7.72;6.50;;;7.60;93.90;;;;;;5073304;28;20036;-82
2022/11/17 07:22:37;;;;;;;7.25;6.43;;;7.70;94.00;;;;;;5057474;28;20514;-82
2022/11/17 07:25:04;;;;;;;6.97;6.28;;;7.70;94.00;;;;;;5074009;28;20047;-81
2022/11/17 07:27:30;;;;;;;7.10;6.40;;;7.60;93.90;;;;;;5072850;28;20044;-80
2022/11/17 07:29:56;;;;;;;7.72;6.63;;;7.60;93.90;;;;;;5053814;28;20044;-81
2022/11/17 07:32:22;;;;;;;7.70;6.90;;;7.60;93.90;;;;;;5054471;28;20399;-80
2022/11/17 07:34:48;;;;;;;9.45;7.53;;;7.60;93.80;;;;;;5053999;28;20067;-81
2022/11/17 07:37:13;;;;;;;7.75;6.70;;;7.60;93.80;;;;;;5052551;28;20048;-81
2022/11/17 07:39:39;;;;;;;8.60;6.82;;;7.70;93.90;;;;;;5035763;28;20036;-81
2022/11/17 07:42:05;;;;;;;7.60;6.85;;;7.70;93.90;;;;;;5067018;28;20123;-80
2022/11/17 07:44:31;;;;;;;7.07;6.20;;;7.70;93.80;;;;;;5051620;28;20094;-79
2022/11/17 07:46:56;;;;;;;6.90;6.20;;;7.70;93.80;;;;;;5051377;28;20058;-84
2022/11/17 07:49:22;;;;;;;6.88;5.85;;;7.70;93.70;;;;;;5068365;28;20109;-79
2022/11/17 07:51:48;;;;;;;7.93;6.32;;;7.70;93.70;;;;;;5069115;28;20041;-79
2022/11/17 07:54:13;;;;;;;7.13;6.43;;;7.70;93.50;;;;;;5069869;28;20138;-79
2022/11/17 07:56:39;;;;;;;7.68;6.88;;;7.70;93.60;;;;;;5051751;28;20037;-80
2022/11/17 07:59:05;;;;;;;8.55;7.03;;;7.60;93.60;;;;;;5069321;28;20040;-84
2022/11/17 08:01:31;;;;;;;7.38;5.93;;;7.70;93.70;;;;;;5054007;28;20048;-80
2022/11/17 08:03:57;;;;;;;6.18;5.57;;;7.70;93.60;;;;;;5053867;28;20048;-82
2022/11/17 08:06:23;;;;;;;7.13;6.25;;;7.70;93.60;;;;;;5039822;28;20040;-82
2022/11/17 08:08:50;;;;;;;6.85;6.15;;;7.70;93.70;;;;;;5056322;28;20063;-83
2022/11/17 08:11:17;;;;;;;7.30;6.60;;;7.70;93.70;;;;;;5072913;28;20048;-81
2022/11/17 08:13:43;;;;;;;7.18;6.38;;;7.70;93.70;;;;;;5040134;28;20124;-81
2022/11/17 08:16:11;;;;;;;8.15;6.50;;;7.70;93.70;;;;;;5073146;28;20064;-83
2022/11/17 08:18:37;;;;;;;7.35;6.45;;;7.60;93.80;;;;;;5073184;28;20040;-82
2022/11/17 08:21:05;;;;;;;6.63;5.60;;;7.70;93.80;;;;;;5056368;28;20105;-82
2022/11/17 08:23:31;;;;;;;6.80;5.53;;;7.70;93.80;;;;;;5073322;28;20040;-83
2022/11/17 08:25:56;;;;;;;7.15;6.45;;;7.70;94.00;;;;;;5057637;28;20495;-83
2022/11/17 08:28:22;;;;;;;7.05;6.35;;;7.70;93.90;;;;;;5057258;28;20032;-81
2022/11/17 08:30:48;;;;;;;7.80;6.00;;;7.70;93.90;;;;;;5056313;28;20453;-82
2022/11/17 08:33:14;;;;;;;6.05;5.45;;;7.70;94.00;;;;;;5055600;28;20040;-86
2022/11/17 08:35:39;;;;;;;5.85;5.20;;;7.70;94.00;;;;;;5039679;28;20040;-83
2022/11/17 08:38:05;;;;;;;6.45;5.32;;;7.70;94.00;;;;;;5073004;28;20086;-82
2022/11/17 08:40:32;;;;;;;6.05;5.43;;;7.70;94.10;;;;;;5056069;28;20403;-85
2022/11/17 08:42:58;;;;;;;6.22;5.25;;;7.70;94.10;;;;;;5056309;28;20052;-81
2022/11/17 08:45:24;;;;;;;6.97;6.15;;;7.70;94.10;;;;;;5056029;28;20391;-82
2022/11/17 08:47:50;;;;;;;6.32;5.72;;;7.60;94.20;;;;;;5038682;28;20051;-80
2022/11/17 08:50:16;;;;;;;6.40;5.55;;;7.60;94.30;;;;;;5072115;28;20044;-85
2022/11/17 08:52:43;;;;;;;5.90;5.30;;;7.60;94.40;;;;;;5055846;28;20048;-83
2022/11/17 09:00:20;;;;;;;6.88;5.38;;;7.60;94.40;;;;;;5068953;23;20061;-84
2022/11/17 09:07:58;;;;;;;6.63;5.53;;;7.60;94.50;;;;;;5370929;23;21085;-87
2022/11/17 09:10:24;;;;;;;6.40;5.43;;;7.70;94.70;;;;;;5017877;28;20049;-88
2022/11/17 09:12:53;;;;;;;6.13;5.47;;;7.70;94.50;;;;;;5000538;28;20499;-86
2022/11/17 09:15:19;;;;;;;5.95;5.35;;;7.70;94.60;;;;;;5015850;28;20041;-86
2022/11/17 09:17:46;;;;;;;6.57;5.50;;;7.80;94.70;;;;;;4988382;28;20038;-86
2022/11/17 09:20:13;;;;;;;6.80;5.47;;;7.80;94.60;;;;;;4980032;28;20041;-85
2022/11/17 09:22:38;;;;;;;5.32;4.55;;;7.70;94.60;;;;;;4996427;28;20046;-84
2022/11/17 09:25:04;;;;;;;5.65;4.93;;;7.80;94.60;;;;;;4979904;28;20041;-84
2022/11/17 09:27:30;;;;;;;6.18;5.57;;;7.80;94.70;;;;;;4979588;28;20054;-86
2022/11/17 09:29:56;;;;;;;5.28;4.78;;;7.70;94.60;;;;;;4979690;28;20080;-85
2022/11/17 09:32:21;;;;;;;5.18;4.55;;;7.80;94.60;;;;;;4979864;28;20058;-84
2022/11/17 09:34:47;;;;;;;8.18;5.47;;;7.80;94.60;;;;;;4980054;28;20046;-84
2022/11/17 09:37:13;;;;;;;5.63;5.07;;;7.80;94.70;;;;;;4980244;28;20101;-86
2022/11/17 09:39:38;;;;;;;5.93;5.28;;;7.80;94.70;;;;;;4980290;28;20042;-85
2022/11/17 09:42:10;;;;;;;5.50;4.90;;;7.70;94.90;;;;;;4997281;28;20041;-88
2022/11/17 09:44:43;;;;;;;6.68;4.88;;;7.80;94.90;;;;;;4999782;28;20133;-86
2022/11/17 09:47:11;;;;;;;5.40;4.88;;;7.80;94.80;;;;;;4999777;28;20046;-86
2022/11/17 09:49:59;;;;;;;5.43;4.93;;;7.80;94.90;;;;;;5000116;28;20049;-87
2022/11/17 09:52:49;;;;;;;6.40;4.75;;;7.80;94.80;;;;;;4999709;28;20165;-86
2022/11/17 09:55:34;;;;;;;5.75;4.20;;;7.80;94.90;;;;;;4999483;28;20046;-85
2022/11/17 09:57:59;;;;;;;4.45;3.88;;;7.90;94.90;;;;;;4999501;28;20041;-87
2022/11/17 10:00:25;;;;;;;6.28;4.90;;;7.80;94.90;;;;;;5000068;28;20088;-86
2022/11/17 10:02:52;;;;;;;6.57;4.97;;;7.90;94.80;;;;;;4984278;28;20049;-85
2022/11/17 10:05:36;;;;;;;5.82;5.13;;;7.80;94.90;;;;;;5000836;28;20073;-86
2022/11/17 10:08:10;;;;;;;6.50;5.20;;;7.80;95.00;;;;;;4982932;28;20567;-87
2022/11/17 10:10:43;;;;;;;5.35;4.85;;;7.70;95.00;;;;;;4999407;28;20572;-86
2022/11/17 10:13:26;;;;;;;4.88;4.47;;;7.70;95.10;;;;;;4999108;28;20078;-85
2022/11/17 10:16:10;;;;;;;4.75;4.20;;;7.70;95.10;;;;;;4999322;28;20447;-84
2022/11/17 10:18:37;;;;;;;5.55;4.57;;;7.80;95.10;;;;;;4999020;28;20080;-85
2022/11/17 10:21:05;;;;;;;5.18;3.80;;;7.80;95.10;;;;;;4998968;28;20042;-85
2022/11/17 10:23:44;;;;;;;4.95;4.13;;;7.80;95.20;;;;;;4997944;28;20500;-85
2022/11/17 10:26:14;;;;;;;4.47;3.85;;;7.80;95.10;;;;;;4998770;28;20065;-85
2022/11/17 10:28:40;;;;;;;6.50;4.60;;;7.80;95.10;;;;;;5014591;28;20125;-85
2022/11/17 10:31:15;;;;;;;6.18;5.45;;;7.80;95.10;;;;;;4998228;28;20128;-85
2022/11/17 10:33:44;;;;;;;5.03;4.22;;;7.90;95.10;;;;;;4998294;28;20099;-84
2022/11/17 10:36:23;;;;;;;4.80;3.78;;;7.90;95.20;;;;;;4998348;28;20092;-85
2022/11/17 10:38:53;;;;;;;4.45;4.05;;;7.90;95.10;;;;;;4998832;28;20446;-86
2022/11/17 10:41:36;;;;;;;4.97;3.90;;;7.80;95.10;;;;;;5014790;28;20501;-86
2022/11/17 10:44:27;;;;;;;5.13;4.32;;;7.90;95.20;;;;;;4998994;28;20064;-86
2022/11/17 10:46:54;;;;;;;4.65;4.00;;;7.90;95.20;;;;;;4998733;28;20097;-88
2022/11/17 10:49:25;;;;;;;5.20;4.07;;;7.90;95.30;;;;;;4999001;28;20049;-87
2022/11/17 10:52:26;;;;;;;4.88;4.00;;;7.80;95.40;;;;;;4998510;28;20061;-86
2022/11/17 10:55:35;;;;;;;4.82;4.32;;;7.90;95.40;;;;;;4980405;28;20121;-86
2022/11/17 10:58:22;;;;;;;5.25;3.70;;;7.90;95.20;;;;;;4998168;28;20554;-86
2022/11/17 11:01:00;;;;;;;5.80;4.70;;;7.90;95.30;;;;;;4998810;28;20050;-86
2022/11/17 11:03:35;;;;;;;3.97;3.53;;;7.90;95.30;;;;;;5014677;28;20038;-87
2022/11/17 11:06:02;;;;;;;4.78;4.28;;;7.90;95.50;;;;;;4998333;28;20038;-87
2022/11/17 11:08:52;;;;;;;4.57;4.03;;;7.90;95.40;;;;;;4997761;28;20057;-86
2022/11/17 11:11:40;;;;;;;3.85;3.45;;;7.90;95.50;;;;;;4998358;28;20455;-86
2022/11/17 11:14:27;;;;;;;7.50;4.00;;;7.90;95.50;;;;;;4998219;28;20485;-84
2022/11/17 11:16:53;;;;;;;5.30;4.10;;;7.90;95.60;;;;;;4997958;28;20497;-85
2022/11/17 11:19:20;;;;;;;5.25;4.00;;;7.90;95.60;;;;;;4998166;28;20103;-86
2022/11/17 11:22:00;;;;;;;3.70;3.35;;;7.90;95.60;;;;;;4981640;28;20088;-86
2022/11/17 11:24:34;;;;;;;4.47;3.70;;;8.00;95.70;;;;;;4997858;28;20041;-85
2022/11/17 11:27:18;;;;;;;;;;;8.10;95.70;;;;;;4998316;28;20046;-85
2022/11/17 11:30:12;;;;;;;5.30;4.65;;;8.10;95.70;;;;;;4998290;28;19998;-86
2022/11/17 11:32:52;;;;;;;4.47;4.00;;;8.10;95.70;;;;;;4996794;28;20054;-86
2022/11/17 11:35:38;;;;;;;5.30;4.72;;;8.10;95.80;;;;;;4998180;28;20092;-86
2022/11/17 11:38:20;;;;;;;5.10;4.60;;;8.10;95.80;;;;;;4997417;28;20045;-87
2022/11/17 11:41:29;;;;;;;6.07;4.70;;;8.20;95.90;;;;;;4997648;28;20037;-86
2022/11/17 11:44:27;;;;;;;6.13;5.53;;;8.20;96.00;;;;;;5013577;28;20041;-87
2022/11/17 11:47:02;;;;;;;6.13;5.53;;;8.20;96.00;;;;;;4997409;28;20092;-86
2022/11/17 11:49:41;;;;;;;5.65;4.78;;;8.10;96.10;;;;;;4997714;28;20439;-86
2022/11/17 11:52:15;;;;;;;7.22;5.63;;;8.20;96.20;;;;;;4997369;28;20406;-87
2022/11/17 11:54:55;;;;;;;5.95;5.35;;;8.20;96.20;;;;;;5013691;28;20046;-86
2022/11/17 11:57:27;;;;;;;5.80;5.18;;;8.30;96.20;;;;;;4997092;28;20057;-86
2022/11/17 12:00:00;;;;;;;6.28;5.20;;;8.30;96.20;;;;;;5013607;28;20054;-85
2022/11/17 12:02:45;;;;;;;6.57;4.27;;;8.40;96.20;;;;;;4997428;28;20041;-85
2022/11/17 12:05:33;;;;;;;5.65;5.07;;;8.50;96.20;;;;;;4996797;28;20107;-85
2022/11/17 12:08:25;;;;;;;6.85;5.43;;;8.50;96.20;;;;;;4997256;28;20045;-87
2022/11/17 12:13:57;;;;;;;;;;;8.40;96.30;;;;;;5014079;28;20131;-87
2022/11/17 12:16:28;;;;;;;5.13;4.63;;;8.50;96.30;;;;;;4997084;28;19918;-86
2022/11/17 12:18:53;;;;;;;7.20;4.85;;;8.50;96.30;;;;;;4997100;28;20048;-85
2022/11/17 12:21:23;;;;;;;5.05;3.53;;;8.50;96.30;;;;;;4964433;28;20038;-85
2022/11/17 12:24:19;;;;;;;5.13;4.35;;;8.50;96.40;;;;;;5013035;28;20041;-85
2022/11/17 12:26:45;;;;;;;4.88;3.65;;;8.50;96.30;;;;;;4996431;28;20091;-85
2022/11/17 12:29:20;;;;;;;4.88;4.40;;;8.50;96.30;;;;;;4980420;28;20443;-86
2022/11/17 12:31:47;;;;;;;4.10;3.70;;;8.50;96.30;;;;;;4996747;28;20034;-85
2022/11/17 12:34:27;;;;;;;3.38;2.78;;;8.50;96.40;;;;;;4996829;28;20100;-87
2022/11/17 12:37:14;;;;;;;3.33;3.03;;;8.50;96.40;;;;;;4996687;28;20041;-87
2022/11/17 12:39:59;;;;;;;4.18;3.47;;;8.60;96.40;;;;;;4996561;28;20485;-87
2022/11/17 12:42:26;;;;;;;4.15;3.50;;;8.50;96.30;;;;;;5013168;28;20045;-87
2022/11/17 12:44:57;;;;;;;4.95;3.60;;;8.50;96.30;;;;;;4996700;28;20049;-87
2022/11/17 12:47:28;;;;;;;4.85;3.35;;;8.50;96.40;;;;;;4996417;28;20044;-88
2022/11/17 12:50:12;;;;;;;4.80;3.72;;;8.50;96.40;;;;;;4996712;28;20048;-87
2022/11/17 12:53:03;;;;;;;4.05;3.25;;;8.60;96.50;;;;;;5012952;28;20045;-88
2022/11/17 12:55:38;;;;;;;3.67;3.35;;;8.60;96.50;;;;;;4996945;28;20037;-89
2022/11/17 12:58:20;;;;;;;7.47;4.10;;;8.60;96.50;;;;;;4997241;28;20046;-87
2022/11/17 13:01:09;;;;;;;5.47;3.63;;;8.60;96.50;;;;;;4996368;28;20469;-87
2022/11/17 13:04:13;;;;;;;6.88;4.30;;;8.60;96.60;;;;;;4996771;28;20400;-87
2022/11/17 13:06:58;;;;;;;6.53;3.72;;;8.60;96.60;;;;;;4996509;28;20125;-88
2022/11/17 13:09:25;;;;;;;;;;;8.60;96.60;;;;;;4997080;28;20060;-87
2022/11/17 13:12:05;;;;;;;3.85;3.45;;;8.60;96.60;;;;;;4996367;28;19968;-88
2022/11/17 13:14:49;;;;;;;5.75;3.53;;;8.70;96.60;;;;;;4996308;28;20084;-86
2022/11/17 13:17:15;;;;;;;4.20;3.80;;;8.70;96.60;;;;;;4995591;28;20041;-87
2022/11/17 13:19:41;;;;;;;5.85;3.90;;;8.70;96.70;;;;;;4980155;28;20289;-87
2022/11/17 13:22:10;;;;;;;5.50;5.00;;;8.80;96.70;;;;;;4964422;28;20041;-88
2022/11/17 13:24:38;;;;;;;4.93;3.90;;;8.80;96.70;;;;;;4996294;28;20042;-85
2022/11/17 13:27:15;;;;;;;5.05;3.95;;;8.80;96.80;;;;;;5012361;28;20048;-87
2022/11/17 13:29:41;;;;;;;6.75;4.85;;;8.80;96.70;;;;;;4996259;28;20042;-87
2022/11/17 13:32:22;;;;;;;5.88;5.00;;;8.90;96.80;;;;;;4979669;28;20508;-85
2022/11/17 13:34:58;;;;;;;6.13;4.32;;;8.90;96.90;;;;;;4996077;28;20042;-87
2022/11/17 13:37:28;;;;;;;7.10;4.57;;;9.00;97.00;;;;;;4996263;28;20115;-88
2022/11/17 13:40:01;;;;;;;11.07;7.97;;;9.00;97.10;;;;;;4980043;28;20049;-86
2022/11/17 13:42:30;;;;;;;8.68;4.68;;;9.00;97.20;;;;;;4996242;28;20135;-87
2022/11/17 13:45:00;;;;;;;7.30;5.15;;;9.10;97.30;;;;;;5012263;28;20049;-87
2022/11/17 13:47:27;;;;;;;6.90;4.05;;;9.10;97.30;;;;;;4995980;28;20042;-88
2022/11/17 13:49:53;;;;;;;10.25;8.43;;;9.10;97.30;;;;;;4996356;28;20053;-88
2022/11/17 13:52:33;;;;;;;10.30;9.30;;;9.20;97.40;;;;;;4963980;28;20504;-86